Time;durP1;ratioP1;P1;durP2;ratioP2;P2;SDS_P1;SDS_P2;PMS_P1;PMS_P2;Temp;Humidity;BMP_temperature;BMP_pressure;BME280_temperature;BME280_humidity;BME280_pressure;Samples;Min_cycle;Max_cycle;Signal;HPM_P1;HPM_P2
2023/04/05 00:01:10;;;;;;;10.20;5.90;;;1.20;99.90;;;;;;4988773;28;20645;-74
2023/04/05 00:03:36;;;;;;;11.45;7.15;;;1.20;99.90;;;;;;4988434;28;20856;-76
2023/04/05 00:06:04;;;;;;;14.73;8.00;;;0.90;99.90;;;;;;4989579;28;20577;-76
2023/04/05 00:08:30;;;;;;;16.40;7.97;;;0.70;99.90;;;;;;4988941;28;20486;-77
2023/04/05 00:10:55;;;;;;;16.23;8.05;;;0.70;99.90;;;;;;4986694;28;20580;-75
2023/04/05 00:13:21;;;;;;;14.73;7.90;;;0.80;99.90;;;;;;4987496;28;20414;-76
2023/04/05 00:15:48;;;;;;;13.25;6.68;;;0.90;99.90;;;;;;4988225;28;20422;-73
2023/04/05 00:18:20;;;;;;;16.07;8.43;;;0.90;99.90;;;;;;4987497;28;20509;-76
2023/04/05 00:20:48;;;;;;;14.38;7.07;;;1.00;99.90;;;;;;4987873;28;20427;-74
2023/04/05 00:23:15;;;;;;;15.00;8.27;;;1.00;99.90;;;;;;4987443;28;20893;-75
2023/04/05 00:25:41;;;;;;;13.00;7.45;;;1.10;99.90;;;;;;4988618;28;20430;-74
2023/04/05 00:28:07;;;;;;;16.50;7.35;;;1.10;99.90;;;;;;4987491;28;20422;-75
2023/04/05 00:30:33;;;;;;;13.07;7.63;;;1.00;99.90;;;;;;4988470;28;20422;-75
2023/04/05 00:32:58;;;;;;;17.77;8.77;;;1.00;99.90;;;;;;4987403;28;20423;-74
2023/04/05 00:35:27;;;;;;;16.48;8.65;;;0.70;99.90;;;;;;4988115;28;20762;-75
2023/04/05 00:37:52;;;;;;;17.75;8.25;;;0.70;99.90;;;;;;4989523;28;20414;-75
2023/04/05 00:40:18;;;;;;;16.50;8.65;;;0.70;99.90;;;;;;4989399;28;20424;-74
2023/04/05 00:42:44;;;;;;;20.35;9.55;;;0.60;99.90;;;;;;4988153;28;20476;-75
2023/04/05 00:45:10;;;;;;;17.17;8.48;;;0.50;99.90;;;;;;4988746;28;21049;-74
2023/04/05 00:47:36;;;;;;;14.48;8.98;;;0.40;99.90;;;;;;4988100;28;20948;-76
2023/04/05 00:50:02;;;;;;;14.77;8.37;;;0.60;99.90;;;;;;4989359;28;20485;-75
2023/04/05 00:52:29;;;;;;;17.60;7.43;;;0.70;99.90;;;;;;4989440;28;20453;-74
2023/04/05 00:54:55;;;;;;;15.82;8.45;;;0.70;99.90;;;;;;4986712;28;20415;-75
2023/04/05 00:57:23;;;;;;;13.17;6.90;;;0.60;99.90;;;;;;4987289;28;21249;-75
2023/04/05 00:59:50;;;;;;;16.92;7.70;;;0.40;99.90;;;;;;4987575;28;20485;-75
2023/04/05 01:02:32;;;;;;;14.00;7.78;;;0.70;99.90;;;;;;4987420;28;21177;-75
2023/04/05 01:05:30;;;;;;;13.82;6.60;;;0.60;99.90;;;;;;4987029;28;20438;-73
2023/04/05 01:08:30;;;;;;;10.35;6.80;;;0.60;99.90;;;;;;5050682;23;20513;-74
2023/04/05 01:11:02;;;;;;;14.38;7.80;;;0.60;99.90;;;;;;4978659;28;20468;-74
2023/04/05 01:13:31;;;;;;;13.50;7.47;;;0.60;99.90;;;;;;4986573;28;20418;-76
2023/04/05 01:15:57;;;;;;;14.45;8.00;;;0.70;99.90;;;;;;4992252;28;20436;-75
2023/04/05 01:18:24;;;;;;;13.52;7.78;;;0.70;99.90;;;;;;5005299;28;20512;-74
2023/04/05 01:21:03;;;;;;;11.02;6.63;;;0.60;99.90;;;;;;5006767;28;21029;-73
2023/04/05 01:23:54;;;;;;;11.52;6.85;;;0.60;99.90;;;;;;5006377;28;20498;-74
2023/04/05 01:26:22;;;;;;;11.52;6.45;;;0.30;99.90;;;;;;4979415;28;20417;-75
2023/04/05 01:29:08;;;;;;;16.35;8.15;;;0.40;99.90;;;;;;4988189;28;20464;-74
2023/04/05 01:31:40;;;;;;;13.45;7.63;;;0.20;99.90;;;;;;5002633;28;20469;-73
2023/04/05 01:34:29;;;;;;;12.27;8.13;;;0.20;99.90;;;;;;5007229;28;20428;-77
2023/04/05 01:37:03;;;;;;;13.85;7.35;;;0.10;99.90;;;;;;4989384;28;20417;-74
2023/04/05 01:39:31;;;;;;;11.45;6.93;;;0.30;99.90;;;;;;4990252;28;20530;-76
2023/04/05 01:42:00;;;;;;;10.07;6.70;;;0.10;99.90;;;;;;4988275;28;20425;-74
2023/04/05 01:44:27;;;;;;;10.65;7.03;;;0.10;99.90;;;;;;4986587;28;20472;-75
2023/04/05 01:46:52;;;;;;;10.95;6.88;;;0.30;99.90;;;;;;4987009;28;20418;-74
2023/04/05 01:49:18;;;;;;;11.25;6.40;;;0.30;99.90;;;;;;4985882;28;20519;-72
2023/04/05 01:51:44;;;;;;;13.65;7.05;;;0.30;99.90;;;;;;4996966;28;20481;-74
2023/04/05 01:54:10;;;;;;;13.50;7.33;;;0.10;99.90;;;;;;4985569;28;20418;-76
2023/04/05 01:56:36;;;;;;;10.37;7.13;;;0.20;99.90;;;;;;4986925;28;20410;-77
2023/04/05 01:59:01;;;;;;;10.95;8.23;;;0.20;99.90;;;;;;4986334;28;20417;-75
2023/04/05 02:01:27;;;;;;;10.85;7.15;;;0.20;99.90;;;;;;4987161;28;20410;-74
2023/04/05 02:03:53;;;;;;;10.00;7.28;;;0.10;99.90;;;;;;4969312;28;20418;-74
2023/04/05 02:06:18;;;;;;;11.70;6.63;;;0.10;99.90;;;;;;4988344;28;20415;-75
2023/04/05 02:08:44;;;;;;;9.53;6.90;;;0.10;99.90;;;;;;5005943;28;20525;-75
2023/04/05 02:11:10;;;;;;;9.57;6.93;;;0.10;99.90;;;;;;5006646;28;20559;-75
2023/04/05 02:13:35;;;;;;;12.73;6.57;;;0.10;99.90;;;;;;4987779;28;20733;-76
2023/04/05 02:16:01;;;;;;;12.23;7.50;;;0.10;99.90;;;;;;5006623;28;20400;-74
2023/04/05 02:18:30;;;;;;;11.32;6.78;;;0.10;99.90;;;;;;5006348;28;20400;-74
2023/04/05 02:21:07;;;;;;;9.38;6.57;;;0.00;99.90;;;;;;5004975;28;20554;-74
2023/04/05 02:23:33;;;;;;;13.23;8.32;;;0.10;99.90;;;;;;5004533;28;20498;-75
2023/04/05 02:25:59;;;;;;;13.10;8.18;;;0.00;99.90;;;;;;5002608;28;20432;-74
2023/04/05 02:28:25;;;;;;;11.63;7.78;;;-0.20;99.90;;;;;;4984325;28;21217;-75
2023/04/05 02:30:51;;;;;;;12.25;8.00;;;-0.10;99.90;;;;;;4985446;28;20481;-74
2023/04/05 02:33:17;;;;;;;12.17;7.77;;;-0.20;99.90;;;;;;4986395;28;20406;-76
2023/04/05 02:35:43;;;;;;;10.80;7.15;;;-0.20;99.90;;;;;;4984969;28;20423;-74
2023/04/05 02:38:09;;;;;;;13.43;8.07;;;-0.20;99.90;;;;;;4988746;28;20414;-75
2023/04/05 02:40:35;;;;;;;11.25;7.47;;;-0.40;99.90;;;;;;4990776;28;20407;-75
2023/04/05 02:43:00;;;;;;;13.30;8.15;;;-0.20;99.90;;;;;;4990045;28;20633;-75
2023/04/05 02:45:27;;;;;;;12.13;7.38;;;-0.30;99.90;;;;;;4990666;28;20780;-75
2023/04/05 02:47:55;;;;;;;14.27;8.63;;;-0.30;99.90;;;;;;4990362;28;20421;-74
2023/04/05 02:50:22;;;;;;;11.40;7.33;;;-0.40;99.90;;;;;;4990310;28;20495;-75
2023/04/05 02:52:48;;;;;;;11.82;8.10;;;-0.50;99.90;;;;;;5009471;28;20404;-73
2023/04/05 02:55:14;;;;;;;12.00;8.68;;;-0.40;99.90;;;;;;5009732;28;20409;-76
2023/04/05 02:57:42;;;;;;;12.35;8.38;;;-0.60;99.90;;;;;;5007024;28;20965;-75
2023/04/05 03:00:09;;;;;;;13.68;8.75;;;-0.40;99.90;;;;;;5008208;28;20968;-73
2023/04/05 03:02:36;;;;;;;12.05;8.77;;;-0.40;99.90;;;;;;5009769;28;20437;-75
2023/04/05 03:05:02;;;;;;;14.43;9.13;;;-0.50;99.90;;;;;;5008369;28;20487;-74
2023/04/05 03:07:29;;;;;;;10.25;7.97;;;-0.50;99.90;;;;;;5008809;28;20440;-75
2023/04/05 03:09:55;;;;;;;12.82;8.30;;;-0.50;99.90;;;;;;5008339;28;20756;-75
2023/04/05 03:12:21;;;;;;;10.15;8.40;;;-0.60;99.90;;;;;;5008340;28;20543;-75
2023/04/05 03:14:47;;;;;;;13.45;8.45;;;-0.70;99.90;;;;;;5008724;28;20545;-75
2023/04/05 03:17:13;;;;;;;13.80;8.90;;;-0.70;99.90;;;;;;5009613;28;20483;-74
2023/04/05 03:19:39;;;;;;;11.60;8.07;;;-0.60;99.90;;;;;;5009126;28;20417;-74
2023/04/05 03:22:04;;;;;;;15.45;9.00;;;-0.60;99.90;;;;;;4990242;28;20429;-75
2023/04/05 03:24:30;;;;;;;11.18;8.93;;;-0.70;99.90;;;;;;5002317;28;20444;-74
2023/04/05 03:27:01;;;;;;;15.27;9.52;;;-0.80;99.90;;;;;;5007023;28;20447;-73
2023/04/05 03:29:27;;;;;;;12.45;8.63;;;-0.70;99.90;;;;;;5009146;28;20486;-74
2023/04/05 03:31:52;;;;;;;14.75;8.93;;;-0.70;99.90;;;;;;5007574;28;20440;-74
2023/04/05 03:34:18;;;;;;;13.00;8.25;;;-0.70;99.90;;;;;;5009124;28;20970;-73
2023/04/05 03:36:44;;;;;;;13.48;8.90;;;-0.80;99.90;;;;;;5007677;28;20836;-74
2023/04/05 03:39:11;;;;;;;13.88;8.68;;;-0.80;99.90;;;;;;5009099;28;20413;-74
2023/04/05 03:41:39;;;;;;;12.35;9.45;;;-0.70;99.90;;;;;;5007901;28;20423;-76
2023/04/05 03:44:05;;;;;;;12.27;8.35;;;-0.50;99.90;;;;;;5008954;28;20798;-74
2023/04/05 03:46:31;;;;;;;13.18;9.55;;;-0.50;99.90;;;;;;4987983;28;20979;-75
2023/04/05 03:49:00;;;;;;;12.53;8.47;;;-0.50;99.90;;;;;;4987910;28;20410;-74
2023/04/05 03:51:26;;;;;;;11.82;8.57;;;-0.60;99.90;;;;;;4989078;28;20480;-74
2023/04/05 03:53:52;;;;;;;13.73;8.70;;;-0.60;99.90;;;;;;4988843;28;20414;-75
2023/04/05 03:56:18;;;;;;;14.57;8.40;;;-0.80;99.90;;;;;;4988906;28;20835;-75
2023/04/05 03:58:43;;;;;;;12.57;8.30;;;-0.60;99.90;;;;;;4988304;28;20405;-75
2023/04/05 04:01:10;;;;;;;12.68;9.38;;;-0.70;99.90;;;;;;4988979;28;20422;-73
2023/04/05 04:03:36;;;;;;;16.10;9.93;;;-0.50;99.90;;;;;;4988037;28;20770;-76
2023/04/05 04:06:03;;;;;;;18.20;10.52;;;-0.40;99.90;;;;;;4993683;28;20428;-73
2023/04/05 04:08:29;;;;;;;14.23;9.95;;;-0.40;99.90;;;;;;5009734;28;20428;-74
2023/04/05 04:10:55;;;;;;;17.43;10.50;;;-0.40;99.90;;;;;;5010470;28;20763;-74
2023/04/05 04:13:21;;;;;;;11.15;8.68;;;-0.40;99.90;;;;;;5009101;28;20409;-75
2023/04/05 04:15:46;;;;;;;17.58;9.35;;;-0.50;99.90;;;;;;5007318;28;20824;-73
2023/04/05 04:18:12;;;;;;;13.77;8.93;;;-0.50;99.90;;;;;;5008914;28;20404;-74
2023/04/05 04:20:38;;;;;;;12.33;8.07;;;-0.40;99.90;;;;;;5007826;28;20514;-74
2023/04/05 04:23:05;;;;;;;13.47;7.77;;;-0.40;99.90;;;;;;5008255;28;20423;-74
2023/04/05 04:25:31;;;;;;;50.58;45.30;;;-0.30;99.90;;;;;;5007212;28;20440;-74
2023/04/05 04:27:57;;;;;;;22.40;19.53;;;-0.30;99.90;;;;;;5007072;28;21237;-75
2023/04/05 04:30:23;;;;;;;13.10;8.82;;;-0.40;99.90;;;;;;4990709;28;20459;-74
2023/04/05 04:32:53;;;;;;;12.57;8.70;;;-0.50;99.90;;;;;;5008010;28;20424;-74
2023/04/05 04:35:23;;;;;;;11.35;8.35;;;-0.60;99.90;;;;;;5007916;28;20492;-73
2023/04/05 04:37:57;;;;;;;11.80;8.77;;;-0.90;99.90;;;;;;5008092;28;20413;-74
2023/04/05 04:40:28;;;;;;;15.77;8.65;;;-1.00;99.90;;;;;;5009443;28;20625;-73
2023/04/05 04:42:57;;;;;;;10.30;8.55;;;-0.90;99.90;;;;;;5008953;28;20480;-73
2023/04/05 04:45:23;;;;;;;17.35;9.95;;;-0.90;99.90;;;;;;5009567;28;20473;-74
2023/04/05 04:47:52;;;;;;;13.93;8.98;;;-0.80;99.90;;;;;;5009823;28;20459;-74
2023/04/05 04:50:19;;;;;;;12.90;8.53;;;-0.80;99.90;;;;;;5009631;28;20472;-73
2023/04/05 04:52:45;;;;;;;14.70;9.05;;;-0.90;99.90;;;;;;5008562;28;20404;-73
2023/04/05 04:55:13;;;;;;;11.67;9.23;;;-0.90;99.90;;;;;;5007759;28;20559;-74
2023/04/05 04:57:40;;;;;;;18.40;10.15;;;-0.80;99.90;;;;;;5006572;28;20984;-73
2023/04/05 05:00:13;;;;;;;12.38;9.05;;;-0.80;99.90;;;;;;5007417;28;20435;-75
2023/04/05 05:02:39;;;;;;;15.75;9.70;;;-0.90;99.90;;;;;;5006185;28;20420;-74
2023/04/05 05:05:06;;;;;;;12.07;9.13;;;-1.00;99.90;;;;;;5006744;28;20425;-74
2023/04/05 05:07:32;;;;;;;14.10;9.00;;;-1.00;99.90;;;;;;4989018;28;20437;-73
2023/04/05 05:09:57;;;;;;;14.00;8.70;;;-0.90;99.90;;;;;;4987251;28;20423;-74
2023/04/05 05:12:23;;;;;;;12.47;9.13;;;-0.70;99.90;;;;;;4969335;28;20406;-74
2023/04/05 05:14:49;;;;;;;12.87;8.87;;;-0.90;99.90;;;;;;4987742;28;20417;-73
2023/04/05 05:17:14;;;;;;;12.07;8.23;;;-0.80;99.90;;;;;;4986574;28;20502;-74
2023/04/05 05:19:40;;;;;;;11.20;8.17;;;-0.60;99.90;;;;;;4986116;28;20430;-74
2023/04/05 05:22:06;;;;;;;14.70;9.15;;;-0.70;99.90;;;;;;4988507;28;20422;-75
2023/04/05 05:24:31;;;;;;;15.60;9.65;;;-0.90;99.90;;;;;;4991747;28;20482;-74
2023/04/05 05:26:57;;;;;;;12.63;8.38;;;-0.80;99.90;;;;;;5004996;28;20420;-73
2023/04/05 05:29:22;;;;;;;12.43;8.88;;;-0.60;99.90;;;;;;5007712;28;20428;-74
2023/04/05 05:31:49;;;;;;;13.15;8.27;;;0.40;99.90;;;;;;5007103;28;21086;-74
2023/04/05 05:34:16;;;;;;;13.20;9.37;;;0.80;99.90;;;;;;5005906;28;20405;-73
2023/04/05 05:36:41;;;;;;;11.32;7.80;;;0.70;99.90;;;;;;5006941;28;20919;-74
2023/04/05 05:39:07;;;;;;;14.10;9.15;;;0.50;99.90;;;;;;5000717;28;20425;-75
2023/04/05 05:41:33;;;;;;;15.43;9.87;;;0.50;99.90;;;;;;4985438;28;20450;-75
2023/04/05 05:43:59;;;;;;;12.60;8.50;;;0.10;99.90;;;;;;4987080;28;20442;-74
2023/04/05 05:46:27;;;;;;;13.48;9.75;;;0.30;99.90;;;;;;4987378;28;20465;-75
2023/04/05 05:48:53;;;;;;;13.88;9.43;;;0.10;99.90;;;;;;4986980;28;20473;-75
2023/04/05 05:51:19;;;;;;;12.35;8.68;;;0.10;99.90;;;;;;4996920;28;20432;-75
2023/04/05 05:53:45;;;;;;;13.35;9.55;;;0.20;99.90;;;;;;5005197;28;20404;-75
2023/04/05 05:56:11;;;;;;;14.57;10.50;;;0.20;99.90;;;;;;4988778;28;20430;-75
2023/04/05 05:58:38;;;;;;;13.67;9.67;;;0.20;99.90;;;;;;4985973;28;20486;-75
2023/04/05 06:01:06;;;;;;;13.48;10.68;;;0.50;99.90;;;;;;4986880;28;20414;-75
2023/04/05 06:03:32;;;;;;;13.20;10.00;;;0.40;99.90;;;;;;4986944;28;20421;-75
2023/04/05 06:05:58;;;;;;;16.13;10.80;;;0.60;99.90;;;;;;4986195;28;20434;-74
2023/04/05 06:08:26;;;;;;;14.07;10.88;;;0.80;99.90;;;;;;4986540;28;20419;-74
2023/04/05 06:10:52;;;;;;;15.90;11.25;;;1.80;99.90;;;;;;4986378;28;20427;-75
2023/04/05 06:13:18;;;;;;;14.73;10.70;;;1.90;99.90;;;;;;4991448;28;20411;-75
2023/04/05 06:15:46;;;;;;;15.30;11.10;;;1.80;99.90;;;;;;4997744;28;20431;-74
2023/04/05 06:18:13;;;;;;;16.97;12.43;;;1.50;99.90;;;;;;5010989;28;20918;-74
2023/04/05 06:20:40;;;;;;;17.60;12.10;;;1.50;99.90;;;;;;5011137;28;20416;-75
2023/04/05 06:23:09;;;;;;;18.02;11.82;;;1.60;99.90;;;;;;5012321;28;20462;-76
2023/04/05 06:25:35;;;;;;;17.83;11.10;;;1.40;99.90;;;;;;5012559;28;20579;-74
2023/04/05 06:28:05;;;;;;;17.50;11.88;;;1.50;99.90;;;;;;5011796;28;20484;-74
2023/04/05 06:30:31;;;;;;;16.23;11.45;;;1.70;99.90;;;;;;5012688;28;20420;-74
2023/04/05 06:32:57;;;;;;;16.27;11.63;;;1.70;99.90;;;;;;5011380;28;20563;-75
2023/04/05 06:35:23;;;;;;;14.73;10.90;;;1.90;99.90;;;;;;5012329;28;20492;-75
2023/04/05 06:37:50;;;;;;;17.58;12.30;;;2.10;99.90;;;;;;5012505;28;20419;-74
2023/04/05 06:40:16;;;;;;;15.50;11.77;;;2.10;99.90;;;;;;5011357;28;20427;-75
2023/04/05 06:42:42;;;;;;;16.33;12.00;;;2.30;99.90;;;;;;5010834;28;20420;-74
2023/04/05 06:45:08;;;;;;;16.58;10.85;;;2.80;99.90;;;;;;5010307;28;20440;-75
2023/04/05 06:47:34;;;;;;;15.32;12.10;;;2.90;99.90;;;;;;5006147;28;20851;-75
2023/04/05 06:50:01;;;;;;;14.73;10.85;;;3.10;99.90;;;;;;4992229;28;20464;-74
2023/04/05 06:52:27;;;;;;;19.20;12.60;;;2.90;99.90;;;;;;4992828;28;20426;-75
2023/04/05 06:54:53;;;;;;;14.43;11.53;;;3.10;99.90;;;;;;4992544;28;21004;-74
2023/04/05 06:57:18;;;;;;;15.07;11.60;;;3.40;99.90;;;;;;4991514;28;20472;-74
2023/04/05 06:59:44;;;;;;;14.60;11.70;;;3.80;99.90;;;;;;4992268;28;20418;-73
2023/04/05 07:02:11;;;;;;;13.57;11.35;;;4.80;99.90;;;;;;4992510;28;20418;-74
2023/04/05 07:04:36;;;;;;;16.15;11.63;;;4.70;99.90;;;;;;4992348;28;20957;-75
2023/04/05 07:07:02;;;;;;;14.38;10.90;;;3.40;99.90;;;;;;4992991;28;20493;-75
2023/04/05 07:09:31;;;;;;;15.93;10.87;;;3.10;99.90;;;;;;4993141;28;20458;-73
2023/04/05 07:11:58;;;;;;;18.83;11.20;;;2.80;99.90;;;;;;4991387;28;20434;-74
2023/04/05 07:14:23;;;;;;;14.77;11.23;;;2.90;99.90;;;;;;4976071;28;20428;-73
2023/04/05 07:16:51;;;;;;;15.20;11.13;;;2.80;99.90;;;;;;4994778;28;20942;-73
2023/04/05 07:19:17;;;;;;;14.82;11.15;;;2.90;99.90;;;;;;5013731;28;20439;-74
2023/04/05 07:21:43;;;;;;;17.23;11.70;;;3.00;99.90;;;;;;5013641;28;20942;-73
2023/04/05 07:24:09;;;;;;;18.43;11.53;;;3.10;99.90;;;;;;5011061;28;20428;-73
2023/04/05 07:26:36;;;;;;;16.30;11.97;;;3.10;99.90;;;;;;5007352;28;20460;-73
2023/04/05 07:29:05;;;;;;;17.73;10.77;;;3.30;99.90;;;;;;5009372;28;20397;-75
2023/04/05 07:31:30;;;;;;;15.20;10.95;;;3.50;99.90;;;;;;5009311;28;20803;-73
2023/04/05 07:33:58;;;;;;;16.50;12.13;;;3.60;99.90;;;;;;5008702;28;20408;-74
2023/04/05 07:36:23;;;;;;;17.52;12.45;;;3.80;99.90;;;;;;5008791;28;20425;-75
2023/04/05 07:38:49;;;;;;;15.15;11.13;;;3.90;99.90;;;;;;5008036;28;20423;-74
2023/04/05 07:41:18;;;;;;;15.20;11.27;;;3.90;99.90;;;;;;5006369;28;20559;-74
2023/04/05 07:43:44;;;;;;;17.27;12.27;;;4.00;99.90;;;;;;5009004;28;20467;-75
2023/04/05 07:46:10;;;;;;;13.17;11.20;;;4.10;99.90;;;;;;5008319;28;20445;-74
2023/04/05 07:48:35;;;;;;;13.17;11.47;;;4.40;99.90;;;;;;5010891;28;20453;-77
2023/04/05 07:51:08;;;;;;;14.93;10.97;;;4.40;99.90;;;;;;5011398;28;20409;-74
2023/04/05 07:53:35;;;;;;;14.73;11.95;;;4.50;99.90;;;;;;5009066;28;20993;-73
2023/04/05 07:56:14;;;;;;;15.00;10.47;;;4.70;99.90;;;;;;5008692;28;20946;-74
2023/04/05 07:58:41;;;;;;;14.45;10.88;;;4.80;99.90;;;;;;5009536;28;20487;-73
2023/04/05 08:01:08;;;;;;;13.67;11.03;;;4.70;99.90;;;;;;5009894;28;20409;-76
2023/04/05 08:03:35;;;;;;;15.45;10.55;;;4.80;99.90;;;;;;5009184;28;20401;-74
2023/04/05 08:06:11;;;;;;;13.35;10.15;;;4.80;99.90;;;;;;5008108;28;20517;-75
2023/04/05 08:08:36;;;;;;;13.73;10.27;;;4.90;99.90;;;;;;5006513;28;20424;-74
2023/04/05 08:11:02;;;;;;;15.98;10.20;;;5.10;99.90;;;;;;5007895;28;20413;-74
2023/04/05 08:13:28;;;;;;;22.20;11.02;;;5.10;99.90;;;;;;5008888;28;20963;-75
2023/04/05 08:15:57;;;;;;;13.32;9.50;;;5.40;99.90;;;;;;5006146;28;20529;-73
2023/04/05 08:18:23;;;;;;;11.02;9.40;;;5.60;99.90;;;;;;5005979;28;20417;-75
2023/04/05 08:20:55;;;;;;;12.43;9.70;;;5.40;99.90;;;;;;4988334;28;20754;-74
2023/04/05 08:23:21;;;;;;;12.32;8.88;;;5.60;99.90;;;;;;4987083;28;20415;-73
2023/04/05 08:25:47;;;;;;;13.52;8.80;;;5.50;99.90;;;;;;4987682;28;20461;-75
2023/04/05 08:28:13;;;;;;;12.75;9.70;;;5.70;99.90;;;;;;4987447;28;20406;-74
2023/04/05 08:30:39;;;;;;;13.25;9.30;;;5.60;99.90;;;;;;4987861;28;20426;-75
2023/04/05 08:33:06;;;;;;;10.75;8.13;;;5.40;99.90;;;;;;4989796;28;20493;-75
2023/04/05 08:35:31;;;;;;;10.95;9.15;;;5.60;99.90;;;;;;4987751;28;20413;-74
2023/04/05 08:37:57;;;;;;;10.87;8.00;;;5.80;99.90;;;;;;4990935;28;20939;-74
2023/04/05 08:40:34;;;;;;;13.07;8.77;;;5.70;99.90;;;;;;5005905;28;20945;-74
2023/04/05 08:43:25;;;;;;;13.43;8.13;;;6.00;99.90;;;;;;5006279;28;20471;-74
2023/04/05 08:45:52;;;;;;;11.20;7.20;;;6.10;99.90;;;;;;4986041;28;20487;-73
2023/04/05 08:48:18;;;;;;;9.43;6.63;;;6.40;99.90;;;;;;5007459;28;20492;-73
2023/04/05 08:50:54;;;;;;;10.18;7.38;;;6.20;99.90;;;;;;5006895;28;20424;-74
2023/04/05 08:53:20;;;;;;;11.55;7.75;;;6.00;99.90;;;;;;5007252;28;20419;-74
2023/04/05 08:55:52;;;;;;;9.82;7.00;;;6.40;99.90;;;;;;5005547;28;20452;-74
2023/04/05 08:58:22;;;;;;;9.43;7.05;;;6.20;99.90;;;;;;5007034;28;20436;-74
2023/04/05 09:00:50;;;;;;;11.93;8.43;;;6.20;99.90;;;;;;5009972;28;20415;-74
2023/04/05 09:03:22;;;;;;;9.00;6.95;;;6.40;99.90;;;;;;5007077;28;20504;-74
2023/04/05 09:05:50;;;;;;;9.32;7.57;;;6.50;99.90;;;;;;4988843;28;20440;-73
2023/04/05 09:08:16;;;;;;;10.30;7.40;;;6.40;99.90;;;;;;5000871;28;20422;-74
2023/04/05 09:10:43;;;;;;;11.88;7.53;;;6.50;99.90;;;;;;4986772;28;20778;-75
2023/04/05 09:13:09;;;;;;;11.60;7.47;;;6.50;99.90;;;;;;4987638;28;20656;-74
2023/04/05 09:15:37;;;;;;;8.73;6.20;;;6.50;99.90;;;;;;4987552;28;20407;-75
2023/04/05 09:18:03;;;;;;;8.32;6.55;;;6.60;99.90;;;;;;4987359;28;20411;-74
2023/04/05 09:20:29;;;;;;;9.68;6.28;;;6.90;99.90;;;;;;4986174;28;20426;-73
2023/04/05 09:22:56;;;;;;;7.60;5.25;;;7.00;99.90;;;;;;4985654;28;20750;-73
2023/04/05 09:25:31;;;;;;;9.57;5.68;;;7.00;99.90;;;;;;4987585;28;20434;-74
2023/04/05 09:27:58;;;;;;;10.38;5.55;;;7.10;99.90;;;;;;4985752;28;20924;-74
2023/04/05 09:30:25;;;;;;;8.20;6.00;;;7.00;99.90;;;;;;4987179;28;20414;-74
2023/04/05 09:32:54;;;;;;;10.55;6.95;;;7.20;99.90;;;;;;4987317;28;20521;-73
2023/04/05 09:35:30;;;;;;;10.00;6.32;;;7.30;99.90;;;;;;4987550;28;20411;-73
2023/04/05 09:37:57;;;;;;;7.53;5.40;;;7.20;99.90;;;;;;4987182;28;20425;-74
2023/04/05 09:40:23;;;;;;;7.05;5.30;;;7.30;99.90;;;;;;4986773;28;20411;-74
2023/04/05 09:42:50;;;;;;;12.05;6.40;;;7.50;99.90;;;;;;4985648;28;20763;-74
2023/04/05 09:45:17;;;;;;;8.68;5.68;;;7.40;99.90;;;;;;4987123;28;20434;-74
2023/04/05 09:47:54;;;;;;;8.48;5.88;;;7.70;99.90;;;;;;4984287;28;20418;-74
2023/04/05 09:50:19;;;;;;;8.05;6.13;;;7.90;99.90;;;;;;4986945;28;20489;-74
2023/04/05 09:52:48;;;;;;;10.10;5.80;;;7.90;99.90;;;;;;4986335;28;20502;-74
2023/04/05 09:55:24;;;;;;;7.67;5.83;;;8.00;99.90;;;;;;4986491;28;20514;-75
2023/04/05 09:57:49;;;;;;;7.57;5.75;;;8.20;99.90;;;;;;5003952;28;20432;-73
2023/04/05 10:00:20;;;;;;;9.18;5.80;;;8.20;99.90;;;;;;5007365;28;20881;-74
2023/04/05 10:02:46;;;;;;;8.13;5.77;;;8.10;99.90;;;;;;5006896;28;21029;-74
2023/04/05 10:05:14;;;;;;;9.15;5.65;;;7.90;99.90;;;;;;5006194;28;20761;-73
2023/04/05 10:07:44;;;;;;;8.27;5.72;;;8.10;99.90;;;;;;5006077;28;21277;-75
2023/04/05 10:10:11;;;;;;;7.85;5.40;;;8.40;99.90;;;;;;5006658;28;20404;-74
2023/04/05 10:12:40;;;;;;;9.25;5.70;;;8.50;99.90;;;;;;5005356;28;20828;-74
2023/04/05 10:15:07;;;;;;;8.27;5.53;;;8.60;99.90;;;;;;5005464;28;20417;-76
2023/04/05 10:17:48;;;;;;;8.88;6.05;;;8.40;99.90;;;;;;5006407;28;20416;-74
2023/04/05 10:20:18;;;;;;;9.85;5.70;;;8.70;99.90;;;;;;5005932;28;20863;-75
2023/04/05 10:23:06;;;;;;;11.02;6.50;;;8.80;99.90;;;;;;5005966;28;20755;-74
2023/04/05 10:25:53;;;;;;;8.18;5.65;;;9.00;99.90;;;;;;5004145;28;20436;-74
2023/04/05 10:28:36;;;;;;;9.32;5.63;;;8.80;99.90;;;;;;5007692;28;20782;-74
2023/04/05 10:31:14;;;;;;;10.40;6.50;;;9.00;99.90;;;;;;5007527;28;20957;-74
2023/04/05 10:33:44;;;;;;;6.47;5.10;;;8.80;99.90;;;;;;5006558;28;20486;-73
2023/04/05 10:36:16;;;;;;;8.98;5.93;;;9.10;99.90;;;;;;5005833;28;20800;-74
2023/04/05 10:39:04;;;;;;;8.93;5.67;;;9.10;99.90;;;;;;5005719;28;20478;-74
2023/04/05 10:41:35;;;;;;;7.93;5.50;;;9.10;99.90;;;;;;5005250;28;20823;-74
2023/04/05 10:44:02;;;;;;;8.75;5.82;;;8.90;99.90;;;;;;5004862;28;20452;-74
2023/04/05 10:46:30;;;;;;;9.68;6.32;;;9.10;99.90;;;;;;5005779;28;21075;-74
2023/04/05 10:49:08;;;;;;;9.00;5.90;;;9.40;99.90;;;;;;5006065;28;20427;-73
2023/04/05 10:51:35;;;;;;;7.47;6.20;;;9.60;99.90;;;;;;5005812;28;20444;-74
2023/04/05 10:54:02;;;;;;;8.43;5.57;;;9.60;99.90;;;;;;5006002;28;20413;-74
2023/04/05 10:56:28;;;;;;;8.02;5.47;;;9.30;99.90;;;;;;4992855;28;20429;-73
2023/04/05 10:58:55;;;;;;;8.55;5.25;;;9.30;99.90;;;;;;4990979;28;20412;-73
2023/04/05 11:01:21;;;;;;;9.85;6.15;;;9.20;99.90;;;;;;4992988;28;20430;-74
2023/04/05 11:03:49;;;;;;;9.98;6.05;;;9.30;99.90;;;;;;4991937;28;20412;-75
2023/04/05 11:06:30;;;;;;;9.25;6.28;;;8.80;99.90;;;;;;4992537;28;20442;-72
2023/04/05 11:09:14;;;;;;;10.18;5.60;;;9.30;99.90;;;;;;4991459;28;20426;-74
2023/04/05 11:11:45;;;;;;;7.72;5.35;;;9.50;99.90;;;;;;4987964;28;20433;-74
2023/04/05 11:14:40;;;;;;;8.23;4.97;;;9.60;99.90;;;;;;4990491;28;20422;-73
2023/04/05 11:17:25;;;;;;;9.80;5.38;;;9.30;99.90;;;;;;4988676;28;20439;-74
2023/04/05 11:19:51;;;;;;;8.98;5.70;;;9.40;99.90;;;;;;4989176;28;20419;-74
2023/04/05 11:22:28;;;;;;;6.88;4.82;;;9.40;99.90;;;;;;4989268;28;20518;-74
2023/04/05 11:25:00;;;;;;;6.38;5.03;;;9.40;99.90;;;;;;4989054;28;20500;-74
2023/04/05 11:27:32;;;;;;;8.35;4.80;;;9.50;99.90;;;;;;4988724;28;20781;-74
2023/04/05 11:30:02;;;;;;;8.10;5.55;;;9.30;99.90;;;;;;4988976;28;20473;-74
2023/04/05 11:32:42;;;;;;;8.20;5.17;;;9.60;99.90;;;;;;4989150;28;20411;-74
2023/04/05 11:35:22;;;;;;;8.38;5.40;;;9.40;99.90;;;;;;4989017;28;20509;-73
2023/04/05 11:37:59;;;;;;;7.07;5.07;;;9.60;99.90;;;;;;4988516;28;20409;-74
2023/04/05 11:40:36;;;;;;;6.78;4.75;;;9.40;99.90;;;;;;4987981;28;20417;-73
2023/04/05 11:43:10;;;;;;;6.32;4.65;;;9.40;99.90;;;;;;4989243;28;20414;-74
2023/04/05 11:45:38;;;;;;;7.32;4.93;;;9.70;99.90;;;;;;4988764;28;20430;-74
2023/04/05 11:48:05;;;;;;;7.35;5.30;;;9.50;99.90;;;;;;4989563;28;20403;-73
2023/04/05 11:50:32;;;;;;;6.10;4.80;;;9.70;99.90;;;;;;4987463;28;20735;-73
2023/04/05 11:53:08;;;;;;;8.85;4.90;;;9.50;99.90;;;;;;4987352;28;20419;-73
2023/04/05 11:55:34;;;;;;;6.85;5.43;;;10.00;99.90;;;;;;4988016;28;20434;-75
2023/04/05 11:58:00;;;;;;;6.68;5.35;;;9.90;99.90;;;;;;4988569;28;20746;-73
2023/04/05 12:00:26;;;;;;;6.50;5.22;;;9.60;99.90;;;;;;4987147;28;20509;-74
2023/04/05 12:02:55;;;;;;;7.37;4.80;;;9.50;99.90;;;;;;4988192;28;20844;-75
2023/04/05 12:05:21;;;;;;;6.78;4.75;;;9.60;99.90;;;;;;4988506;28;20525;-75
2023/04/05 12:07:53;;;;;;;7.70;5.17;;;9.70;99.90;;;;;;4988073;28;21024;-75
2023/04/05 12:10:20;;;;;;;8.27;5.15;;;9.80;99.90;;;;;;4985551;28;20418;-74
2023/04/05 12:12:47;;;;;;;7.97;4.50;;;10.10;99.90;;;;;;4988291;28;20410;-75
2023/04/05 12:15:16;;;;;;;8.88;5.63;;;10.30;99.90;;;;;;4987459;28;20433;-75
2023/04/05 12:17:54;;;;;;;7.68;4.97;;;10.40;99.90;;;;;;4986601;28;20409;-74
2023/04/05 12:20:25;;;;;;;5.70;4.78;;;10.30;99.90;;;;;;4987995;28;20422;-75
2023/04/05 12:22:55;;;;;;;9.00;4.93;;;10.40;99.90;;;;;;4987808;28;20406;-75
2023/04/05 12:25:22;;;;;;;7.80;4.75;;;10.00;99.50;;;;;;4985405;28;20959;-75
2023/04/05 12:27:48;;;;;;;7.07;5.05;;;10.10;99.80;;;;;;4987798;28;20462;-75
2023/04/05 12:30:18;;;;;;;8.35;5.53;;;10.30;99.90;;;;;;4996260;28;21027;-75
2023/04/05 12:32:53;;;;;;;7.13;4.82;;;9.90;99.90;;;;;;5007088;28;20800;-74
2023/04/05 12:35:33;;;;;;;7.30;5.07;;;10.10;99.80;;;;;;5007301;28;20417;-74
2023/04/05 12:38:06;;;;;;;7.20;5.43;;;9.90;99.90;;;;;;5007553;28;20412;-75
2023/04/05 12:40:39;;;;;;;6.22;4.68;;;10.40;99.90;;;;;;5005871;28;20421;-74
2023/04/05 12:43:08;;;;;;;8.23;4.93;;;10.50;99.90;;;;;;4991494;28;20453;-74
2023/04/05 12:45:41;;;;;;;7.47;5.63;;;10.70;98.70;;;;;;4994852;28;20438;-75
2023/04/05 12:48:18;;;;;;;9.10;5.03;;;10.20;99.20;;;;;;4987536;28;20432;-75
2023/04/05 12:50:50;;;;;;;6.63;4.53;;;10.30;99.40;;;;;;4971575;28;20425;-73
2023/04/05 12:53:19;;;;;;;7.65;4.28;;;10.10;99.10;;;;;;4988341;28;20421;-74